createdAt,value
2023-04-09T00:00:21.072Z,6.60
2023-04-09T00:02:47.990Z,6.50
2023-04-09T00:05:15.156Z,6.03
2023-04-09T00:07:44.262Z,7.10
2023-04-09T00:10:11.588Z,7.20
2023-04-09T00:12:38.322Z,7.45
2023-04-09T00:15:05.710Z,8.27
2023-04-09T00:17:32.415Z,7.70
2023-04-09T00:19:59.110Z,7.97
2023-04-09T00:22:25.773Z,7.43
2023-04-09T00:24:52.428Z,8.05
2023-04-09T00:27:19.165Z,7.35
2023-04-09T00:29:45.926Z,7.40
2023-04-09T00:32:12.550Z,7.28
2023-04-09T00:34:39.435Z,7.68
2023-04-09T00:37:06.337Z,7.53
2023-04-09T00:39:32.979Z,7.43
2023-04-09T00:42:02.806Z,6.88
2023-04-09T00:44:29.512Z,7.20
2023-04-09T00:46:57.743Z,6.80
2023-04-09T00:49:26.357Z,7.65
2023-04-09T00:51:53.706Z,8.23
2023-04-09T00:54:20.540Z,6.63
2023-04-09T00:56:47.906Z,7.70
2023-04-09T00:59:15.405Z,7.72
2023-04-09T01:02:18.979Z,6.78
2023-04-09T01:04:46.240Z,6.75
2023-04-09T01:07:48.026Z,7.40
2023-04-09T01:10:28.851Z,7.15
2023-04-09T01:13:07.261Z,7.78
2023-04-09T01:15:38.526Z,6.78
2023-04-09T01:18:05.235Z,6.90
2023-04-09T01:20:39.296Z,7.03
2023-04-09T01:23:49.493Z,7.18
2023-04-09T01:26:44.279Z,7.85
2023-04-09T01:29:11.884Z,7.25
2023-04-09T01:31:39.995Z,7.35
2023-04-09T01:34:09.395Z,7.60
2023-04-09T01:36:36.742Z,7.93
2023-04-09T01:39:03.771Z,7.03
2023-04-09T01:41:33.320Z,7.35
2023-04-09T01:44:02.213Z,7.43
2023-04-09T01:46:30.073Z,7.80
2023-04-09T01:48:57.392Z,7.47
2023-04-09T01:51:24.342Z,7.13
2023-04-09T01:53:51.245Z,6.47
2023-04-09T01:56:17.921Z,7.40
2023-04-09T01:58:44.565Z,7.30
2023-04-09T02:01:20.922Z,7.00
2023-04-09T02:03:52.234Z,6.75
2023-04-09T02:06:44.360Z,7.38
2023-04-09T02:09:15.349Z,7.93
2023-04-09T02:11:43.600Z,7.45
2023-04-09T02:14:12.436Z,7.50
2023-04-09T02:16:40.471Z,7.65
2023-04-09T02:19:07.155Z,7.30
2023-04-09T02:21:33.836Z,7.60
2023-04-09T02:24:00.502Z,7.97
2023-04-09T02:26:27.275Z,7.90
2023-04-09T02:28:54.190Z,7.25
2023-04-09T02:31:21.267Z,8.02
2023-04-09T02:33:47.923Z,7.82
2023-04-09T02:36:14.744Z,7.80
2023-04-09T02:38:42.532Z,7.18
2023-04-09T02:41:09.831Z,8.20
2023-04-09T02:43:36.969Z,8.73
2023-04-09T02:46:03.975Z,7.72
2023-04-09T02:48:30.653Z,8.63
2023-04-09T02:50:57.435Z,8.23
2023-04-09T02:53:24.146Z,8.60
2023-04-09T02:55:50.801Z,8.80
2023-04-09T02:58:17.455Z,8.73
2023-04-09T03:00:44.124Z,9.20
2023-04-09T03:03:11.202Z,9.23
2023-04-09T03:05:38.968Z,9.63
2023-04-09T03:08:05.792Z,10.00
2023-04-09T03:10:32.522Z,10.77
2023-04-09T03:12:59.191Z,11.15
2023-04-09T03:15:25.947Z,11.73
2023-04-09T03:17:52.655Z,11.32
2023-04-09T03:20:19.391Z,11.13
2023-04-09T03:22:46.054Z,10.00
2023-04-09T03:25:12.751Z,10.77
2023-04-09T03:27:39.405Z,10.82
2023-04-09T03:30:06.536Z,10.60
2023-04-09T03:32:33.216Z,10.70
2023-04-09T03:34:59.937Z,11.18
2023-04-09T03:37:26.588Z,10.52
2023-04-09T03:39:53.279Z,11.27
2023-04-09T03:42:19.952Z,11.68
2023-04-09T03:44:46.725Z,12.07
2023-04-09T03:47:13.458Z,11.95
2023-04-09T03:49:40.566Z,12.25
2023-04-09T03:52:07.532Z,11.95
2023-04-09T03:54:34.189Z,12.00
2023-04-09T03:57:01.484Z,13.38
2023-04-09T03:59:28.167Z,14.15
2023-04-09T04:01:54.892Z,15.32
2023-04-09T04:04:23.602Z,15.43
2023-04-09T04:06:50.951Z,14.10
2023-04-09T04:09:17.753Z,16.92
2023-04-09T04:11:44.431Z,16.45
2023-04-09T04:14:11.083Z,16.67
2023-04-09T04:16:37.826Z,17.95
2023-04-09T04:19:04.520Z,15.60
2023-04-09T04:21:31.564Z,16.42
2023-04-09T04:23:58.365Z,15.32
2023-04-09T04:26:25.219Z,15.48
2023-04-09T04:28:52.039Z,15.73
2023-04-09T04:31:18.997Z,15.95
2023-04-09T04:33:45.635Z,16.17
2023-04-09T04:36:13.904Z,16.70
2023-04-09T04:38:41.904Z,17.45
2023-04-09T04:41:10.428Z,17.95
2023-04-09T04:43:37.134Z,18.23
2023-04-09T04:46:03.914Z,17.20
2023-04-09T04:48:31.928Z,17.73
2023-04-09T04:51:01.078Z,17.98
2023-04-09T04:53:28.150Z,16.30
2023-04-09T04:55:55.075Z,20.08
2023-04-09T04:58:21.756Z,21.58
2023-04-09T05:00:48.435Z,18.73
2023-04-09T05:03:16.283Z,18.67
2023-04-09T05:05:43.202Z,17.75
2023-04-09T05:08:09.856Z,18.27
2023-04-09T05:10:36.574Z,16.77
2023-04-09T05:13:03.352Z,17.15
2023-04-09T05:15:30.822Z,18.58
2023-04-09T05:17:58.139Z,18.05
2023-04-09T05:20:24.948Z,17.88
2023-04-09T05:22:52.344Z,19.10
2023-04-09T05:25:19.202Z,17.67
2023-04-09T05:27:45.992Z,17.77
2023-04-09T05:30:13.439Z,17.20
2023-04-09T05:32:40.357Z,15.10
2023-04-09T05:35:07.364Z,15.65
2023-04-09T05:37:34.087Z,15.55
2023-04-09T05:40:00.750Z,15.82
2023-04-09T05:42:27.400Z,15.65
2023-04-09T05:44:54.062Z,15.52
2023-04-09T05:47:20.744Z,16.98
2023-04-09T05:49:47.552Z,16.77
2023-04-09T05:52:16.169Z,17.60
2023-04-09T05:54:42.910Z,16.42
2023-04-09T05:57:09.550Z,16.30
2023-04-09T05:59:36.208Z,15.70
2023-04-09T06:02:02.893Z,15.75
2023-04-09T06:04:29.736Z,15.30
2023-04-09T06:07:00.078Z,14.60
2023-04-09T06:09:27.924Z,13.68
2023-04-09T06:11:54.625Z,15.73
2023-04-09T06:14:21.285Z,14.82
2023-04-09T06:16:48.040Z,14.77
2023-04-09T06:19:16.712Z,15.68
2023-04-09T06:21:43.537Z,16.45
2023-04-09T06:24:10.265Z,14.93
2023-04-09T06:26:37.019Z,15.20
2023-04-09T06:29:03.693Z,15.43
2023-04-09T06:31:30.354Z,15.48
2023-04-09T06:33:57.064Z,17.50
2023-04-09T06:36:23.756Z,17.88
2023-04-09T06:38:50.594Z,18.83
2023-04-09T06:41:20.353Z,21.33
2023-04-09T06:43:46.978Z,27.90
2023-04-09T06:46:17.236Z,25.95
2023-04-09T06:51:11.881Z,25.27
2023-04-09T06:53:39.477Z,25.83
2023-04-09T06:56:07.191Z,26.40
2023-04-09T06:58:34.090Z,24.77
2023-04-09T07:01:01.159Z,27.27
2023-04-09T07:03:28.826Z,25.60
2023-04-09T07:05:56.563Z,24.63
2023-04-09T07:08:23.757Z,26.52
2023-04-09T07:10:50.470Z,25.52
2023-04-09T07:13:17.404Z,26.00
2023-04-09T07:15:44.244Z,25.58
2023-04-09T07:18:11.106Z,26.08
2023-04-09T07:20:37.873Z,25.08
2023-04-09T07:23:04.609Z,25.73
2023-04-09T07:25:31.370Z,23.73
2023-04-09T07:27:58.359Z,24.10
2023-04-09T07:30:25.816Z,24.00
2023-04-09T07:32:52.541Z,24.02
2023-04-09T07:35:19.371Z,24.65
2023-04-09T07:37:46.190Z,23.17
2023-04-09T07:40:12.950Z,23.85
2023-04-09T07:42:39.994Z,23.73
2023-04-09T07:45:07.426Z,24.20
2023-04-09T07:47:34.197Z,23.85
2023-04-09T07:50:02.016Z,24.33
2023-04-09T07:52:28.718Z,22.88
2023-04-09T07:54:55.670Z,22.83
2023-04-09T07:57:22.327Z,22.60
2023-04-09T07:59:49.075Z,23.15
2023-04-09T08:02:16.080Z,22.92
2023-04-09T08:04:42.927Z,22.55
2023-04-09T08:07:09.732Z,21.42
2023-04-09T08:09:36.400Z,20.77
2023-04-09T08:12:04.335Z,19.45
2023-04-09T08:14:31.115Z,18.30
2023-04-09T08:16:57.827Z,19.63
2023-04-09T08:19:24.831Z,18.88
2023-04-09T08:21:52.481Z,19.95
2023-04-09T08:24:19.365Z,20.45
2023-04-09T08:26:46.269Z,17.92
2023-04-09T08:29:13.703Z,17.13
2023-04-09T08:31:40.676Z,15.52
2023-04-09T08:34:07.398Z,16.42
2023-04-09T08:36:35.460Z,17.30
2023-04-09T08:39:02.951Z,16.65
2023-04-09T08:41:30.088Z,17.10
2023-04-09T08:43:59.193Z,17.17
2023-04-09T08:46:27.749Z,17.50
2023-04-09T08:48:54.970Z,17.08
2023-04-09T08:51:25.073Z,16.52
2023-04-09T08:54:03.052Z,17.70
2023-04-09T08:56:31.113Z,17.70
2023-04-09T08:58:57.789Z,18.13
2023-04-09T09:01:29.863Z,17.85
2023-04-09T09:04:04.513Z,18.73
2023-04-09T09:06:41.641Z,18.13
2023-04-09T09:09:13.536Z,18.40
2023-04-09T09:11:52.558Z,17.90
2023-04-09T09:14:20.140Z,16.15
2023-04-09T09:16:56.105Z,16.23
2023-04-09T09:19:26.077Z,16.42
2023-04-09T09:22:04.605Z,16.50
2023-04-09T09:24:32.583Z,16.38
2023-04-09T09:26:59.326Z,15.13
2023-04-09T09:29:26.454Z,13.93
2023-04-09T09:31:54.607Z,13.88
2023-04-09T09:34:23.173Z,14.00
2023-04-09T09:36:50.530Z,14.27
2023-04-09T09:39:17.698Z,13.27
2023-04-09T09:41:45.954Z,12.98
2023-04-09T09:44:29.962Z,15.05
2023-04-09T09:46:57.569Z,14.35
2023-04-09T09:49:24.248Z,13.57
2023-04-09T09:51:51.853Z,13.07
2023-04-09T09:54:22.665Z,14.80
2023-04-09T09:56:52.918Z,13.77
2023-04-09T10:02:04.635Z,13.27
2023-04-09T10:04:35.987Z,13.68
2023-04-09T10:07:05.826Z,14.63
2023-04-09T10:09:35.313Z,15.55
2023-04-09T10:12:04.057Z,13.40
2023-04-09T10:14:31.363Z,12.95
2023-04-09T10:16:58.348Z,11.13
2023-04-09T10:19:25.238Z,11.07
2023-04-09T10:22:01.799Z,11.20
2023-04-09T10:24:28.482Z,11.15
2023-04-09T10:26:56.313Z,12.20
2023-04-09T10:29:29.338Z,12.18
2023-04-09T10:32:06.956Z,12.05
2023-04-09T10:34:40.185Z,11.35
2023-04-09T10:37:14.518Z,11.10
2023-04-09T10:39:45.097Z,10.93
2023-04-09T10:42:15.355Z,9.18
2023-04-09T10:44:42.763Z,9.85
2023-04-09T10:47:11.385Z,9.27
2023-04-09T10:49:40.278Z,9.75
2023-04-09T10:52:12.109Z,9.10
2023-04-09T10:54:46.585Z,10.43
2023-04-09T10:57:23.042Z,10.10
2023-04-09T10:59:55.023Z,9.68
2023-04-09T11:02:40.526Z,8.98
2023-04-09T11:05:32.507Z,7.55
2023-04-09T11:08:11.994Z,7.15
2023-04-09T11:10:41.089Z,7.37
2023-04-09T11:13:12.583Z,7.50
2023-04-09T11:15:39.647Z,7.15
2023-04-09T11:18:13.970Z,6.35
2023-04-09T11:20:40.950Z,9.73
2023-04-09T11:23:07.715Z,7.05
2023-04-09T11:25:35.652Z,6.53
2023-04-09T11:28:04.694Z,7.68
2023-04-09T11:30:31.741Z,6.40
2023-04-09T11:32:58.424Z,6.63
2023-04-09T11:35:25.589Z,7.32
2023-04-09T11:37:52.673Z,6.80
2023-04-09T11:40:21.618Z,6.28
2023-04-09T11:42:53.242Z,8.45
2023-04-09T11:45:25.590Z,16.30
2023-04-09T11:47:52.698Z,5.80
2023-04-09T11:50:21.097Z,27.17
2023-04-09T11:52:48.606Z,20.33
2023-04-09T11:55:26.395Z,7.00
2023-04-09T11:57:57.433Z,5.95
2023-04-09T12:00:25.121Z,15.75
2023-04-09T12:03:00.889Z,11.40
2023-04-09T12:05:34.496Z,30.90
2023-04-09T12:08:08.437Z,11.43
2023-04-09T12:10:38.852Z,4.40
2023-04-09T12:15:35.344Z,3.58
2023-04-09T12:18:02.315Z,3.60
2023-04-09T12:20:37.307Z,3.63
2023-04-09T12:23:06.311Z,4.10
2023-04-09T12:25:35.629Z,3.95
2023-04-09T12:28:03.242Z,2.85
2023-04-09T12:30:29.972Z,3.03
2023-04-09T12:32:56.909Z,3.35
2023-04-09T12:35:23.859Z,3.35
2023-04-09T12:37:51.485Z,3.75
2023-04-09T12:40:19.113Z,3.67
2023-04-09T12:42:46.650Z,3.38
2023-04-09T12:45:15.638Z,2.83
2023-04-09T12:47:43.212Z,3.75
2023-04-09T12:50:11.655Z,3.75
2023-04-09T12:52:38.706Z,3.65
2023-04-09T12:55:06.655Z,3.00
2023-04-09T12:57:33.739Z,3.10
2023-04-09T13:00:00.856Z,3.22
2023-04-09T13:02:27.658Z,3.42
2023-04-09T13:04:54.451Z,3.45
2023-04-09T13:07:21.163Z,3.33
2023-04-09T13:09:50.398Z,2.67
2023-04-09T13:12:17.519Z,3.40
2023-04-09T13:14:46.666Z,2.97
2023-04-09T13:17:13.937Z,2.90
2023-04-09T13:19:42.714Z,3.10
2023-04-09T13:22:10.446Z,3.33
2023-04-09T13:24:40.768Z,2.70
2023-04-09T13:29:36.691Z,2.75
2023-04-09T13:32:07.458Z,3.00
2023-04-09T13:34:35.295Z,2.75
2023-04-09T13:37:05.372Z,2.92
2023-04-09T13:39:33.042Z,3.28
2023-04-09T13:42:01.395Z,2.67
2023-04-09T13:44:29.074Z,2.92
2023-04-09T13:46:55.980Z,2.72
2023-04-09T13:49:22.754Z,2.60
2023-04-09T13:51:50.896Z,2.47
2023-04-09T13:54:17.827Z,2.95
2023-04-09T13:56:45.522Z,2.55
2023-04-09T13:59:12.452Z,2.95
2023-04-09T14:01:39.291Z,2.50
2023-04-09T14:04:06.257Z,3.15
2023-04-09T14:06:33.022Z,3.15
2023-04-09T14:08:59.785Z,2.85
2023-04-09T14:11:26.464Z,2.42
2023-04-09T14:13:53.370Z,2.33
2023-04-09T14:16:20.414Z,2.60
2023-04-09T14:18:47.185Z,2.70
2023-04-09T14:21:13.960Z,2.72
2023-04-09T14:23:41.050Z,2.40
2023-04-09T14:26:07.833Z,2.35
2023-04-09T14:28:34.468Z,2.58
2023-04-09T14:31:01.367Z,2.90
2023-04-09T14:33:28.272Z,2.58
2023-04-09T14:35:55.581Z,2.50
2023-04-09T14:38:24.201Z,2.38
2023-04-09T14:40:51.618Z,2.40
2023-04-09T14:43:18.559Z,2.20
2023-04-09T14:45:45.338Z,2.80
2023-04-09T14:48:11.998Z,2.55
2023-04-09T14:50:38.765Z,1.98
2023-04-09T14:53:05.784Z,2.13
2023-04-09T14:55:32.561Z,2.65
2023-04-09T14:57:59.700Z,2.30
2023-04-09T15:00:27.358Z,2.20
2023-04-09T15:02:54.853Z,2.78
2023-04-09T15:05:21.974Z,2.70
2023-04-09T15:07:48.689Z,2.10
2023-04-09T15:10:15.656Z,2.30
2023-04-09T15:12:42.403Z,2.63
2023-04-09T15:15:09.827Z,2.22
2023-04-09T15:17:36.846Z,2.20
2023-04-09T15:20:04.187Z,2.20
2023-04-09T15:22:31.167Z,1.90
2023-04-09T15:24:57.925Z,2.30
2023-04-09T15:27:24.646Z,2.25
2023-04-09T15:29:51.852Z,2.45
2023-04-09T15:32:18.715Z,2.13
2023-04-09T15:34:45.413Z,1.98
2023-04-09T15:37:12.212Z,1.90
2023-04-09T15:39:38.898Z,2.17
2023-04-09T15:42:07.933Z,2.10
2023-04-09T15:44:36.322Z,2.08
2023-04-09T15:47:03.021Z,2.15
2023-04-09T15:49:29.727Z,2.53
2023-04-09T15:51:56.381Z,2.08
2023-04-09T15:54:23.102Z,2.53
2023-04-09T15:56:49.845Z,2.13
2023-04-09T15:59:18.855Z,2.22
2023-04-09T16:01:45.932Z,2.55
2023-04-09T16:04:13.212Z,2.50
2023-04-09T16:06:40.076Z,2.83
2023-04-09T16:09:06.813Z,2.20
2023-04-09T16:11:35.893Z,2.08
2023-04-09T16:14:02.685Z,2.40
2023-04-09T16:16:29.524Z,2.20
2023-04-09T16:18:56.430Z,2.50
2023-04-09T16:21:23.277Z,2.13
2023-04-09T16:23:49.907Z,1.90
2023-04-09T16:26:16.583Z,1.90
2023-04-09T16:28:43.994Z,2.30
2023-04-09T16:31:10.781Z,2.25
2023-04-09T16:33:37.426Z,1.90
2023-04-09T16:36:04.417Z,2.15
2023-04-09T16:38:31.251Z,2.03
2023-04-09T16:40:58.048Z,1.83
2023-04-09T16:43:25.792Z,2.28
2023-04-09T16:45:52.559Z,2.25
2023-04-09T16:48:19.389Z,2.15
2023-04-09T16:50:46.063Z,2.05
2023-04-09T16:53:13.084Z,2.17
2023-04-09T16:55:39.787Z,2.08
2023-04-09T16:58:06.435Z,2.10
2023-04-09T17:00:33.200Z,1.95
2023-04-09T17:03:01.114Z,1.70
2023-04-09T17:05:27.927Z,2.20
2023-04-09T17:07:54.876Z,2.25
2023-04-09T17:10:22.263Z,1.75
2023-04-09T17:12:50.546Z,2.00
2023-04-09T17:15:17.757Z,2.13
2023-04-09T17:17:45.738Z,2.30
2023-04-09T17:20:12.957Z,1.73
2023-04-09T17:22:39.975Z,1.90
2023-04-09T17:25:07.157Z,1.90
2023-04-09T17:27:33.925Z,2.22
2023-04-09T17:30:00.756Z,1.90
2023-04-09T17:32:27.634Z,1.90
2023-04-09T17:34:54.453Z,1.85
2023-04-09T17:37:21.273Z,1.85
2023-04-09T17:39:47.926Z,2.25
2023-04-09T17:42:14.606Z,2.45
2023-04-09T17:44:43.668Z,2.40
2023-04-09T17:47:11.593Z,2.42
2023-04-09T17:49:39.237Z,2.40
2023-04-09T17:52:06.464Z,2.08
2023-04-09T17:54:35.100Z,2.13
2023-04-09T17:57:04.407Z,3.13
2023-04-09T17:59:32.682Z,2.42
2023-04-09T18:02:00.312Z,2.33
2023-04-09T18:04:27.499Z,2.47
2023-04-09T18:06:54.825Z,2.60
2023-04-09T18:09:21.926Z,2.65
2023-04-09T18:11:49.064Z,2.83
2023-04-09T18:14:15.808Z,2.35
2023-04-09T18:16:42.641Z,2.22
2023-04-09T18:19:10.129Z,2.67
2023-04-09T18:21:36.903Z,2.70
2023-04-09T18:24:04.272Z,2.85
2023-04-09T18:26:31.369Z,3.33
2023-04-09T18:29:00.853Z,4.13
2023-04-09T18:31:28.225Z,5.70
2023-04-09T18:33:55.002Z,5.28
2023-04-09T18:36:21.702Z,6.03
2023-04-09T18:38:48.812Z,8.70
2023-04-09T18:41:25.469Z,8.27
2023-04-09T18:43:52.715Z,6.18
2023-04-09T18:46:19.678Z,5.35
2023-04-09T18:48:49.190Z,4.47
2023-04-09T18:51:16.882Z,2.40
2023-04-09T18:53:44.314Z,2.55
2023-04-09T18:56:11.399Z,2.10
2023-04-09T18:58:38.822Z,2.10
2023-04-09T19:01:11.822Z,2.17
2023-04-09T19:03:39.840Z,2.13
2023-04-09T19:06:19.013Z,2.40
2023-04-09T19:08:47.015Z,2.95
2023-04-09T19:11:14.752Z,2.58
2023-04-09T19:13:41.522Z,2.67
2023-04-09T19:16:11.356Z,2.92
2023-04-09T19:18:38.155Z,2.75
2023-04-09T19:21:07.436Z,2.97
2023-04-09T19:23:35.044Z,2.60
2023-04-09T19:26:05.273Z,2.42
2023-04-09T19:28:32.466Z,2.78
2023-04-09T19:31:01.290Z,3.05
2023-04-09T19:35:56.061Z,3.05
2023-04-09T19:38:23.542Z,3.20
2023-04-09T19:40:50.344Z,3.03
2023-04-09T19:43:17.013Z,3.42
2023-04-09T19:45:43.763Z,4.57
2023-04-09T19:48:12.545Z,5.82
2023-04-09T19:50:46.532Z,6.18
2023-04-09T19:53:13.187Z,5.88
2023-04-09T19:55:39.968Z,5.63
2023-04-09T19:58:07.805Z,8.25
2023-04-09T20:00:35.197Z,7.18
2023-04-09T20:03:07.518Z,8.35
2023-04-09T20:05:36.161Z,6.10
2023-04-09T20:08:03.498Z,4.00
2023-04-09T20:10:36.257Z,3.88
2023-04-09T20:13:13.848Z,6.70
2023-04-09T20:15:50.776Z,4.70
2023-04-09T20:18:17.741Z,3.65
2023-04-09T20:20:47.449Z,3.15
2023-04-09T20:23:14.739Z,3.72
2023-04-09T20:25:42.257Z,4.20
2023-04-09T20:28:10.342Z,4.10
2023-04-09T20:30:40.897Z,4.03
2023-04-09T20:33:08.516Z,4.82
2023-04-09T20:35:36.274Z,5.60
2023-04-09T20:38:07.122Z,5.15
2023-04-09T20:40:44.465Z,4.80
2023-04-09T20:43:12.249Z,4.88
2023-04-09T20:45:40.112Z,4.45
2023-04-09T20:48:09.410Z,4.35
2023-04-09T20:50:42.286Z,4.40
2023-04-09T20:53:10.149Z,4.60
2023-04-09T20:55:42.255Z,5.20
2023-04-09T20:58:09.381Z,4.55
2023-04-09T21:00:43.472Z,4.13
2023-04-09T21:03:10.969Z,4.80
2023-04-09T21:05:38.866Z,4.93
2023-04-09T21:08:06.607Z,5.38
2023-04-09T21:10:33.292Z,5.13
2023-04-09T21:12:59.982Z,5.43
2023-04-09T21:15:26.639Z,5.95
2023-04-09T21:17:53.383Z,6.80
2023-04-09T21:20:20.226Z,6.60
2023-04-09T21:22:47.038Z,5.70
2023-04-09T21:25:15.393Z,6.82
2023-04-09T21:27:42.388Z,5.80
2023-04-09T21:30:09.464Z,5.97
2023-04-09T21:32:36.905Z,8.73
2023-04-09T21:35:04.083Z,5.72
2023-04-09T21:37:32.948Z,7.10
2023-04-09T21:39:59.644Z,6.10
2023-04-09T21:42:26.434Z,6.03
2023-04-09T21:44:53.129Z,5.07
2023-04-09T21:47:19.797Z,5.88
2023-04-09T21:49:46.565Z,4.43
2023-04-09T21:52:15.068Z,5.00
2023-04-09T21:54:43.237Z,4.80
2023-04-09T21:57:10.873Z,5.68
2023-04-09T21:59:38.060Z,4.70
2023-04-09T22:02:05.767Z,4.22
2023-04-09T22:04:35.227Z,4.30
2023-04-09T22:07:03.430Z,4.40
2023-04-09T22:09:31.713Z,4.35
2023-04-09T22:11:59.764Z,3.75
2023-04-09T22:14:29.366Z,4.00
2023-04-09T22:17:01.403Z,3.88
2023-04-09T22:19:32.069Z,4.53
2023-04-09T22:21:59.016Z,3.85
2023-04-09T22:24:30.240Z,3.88
2023-04-09T22:26:58.925Z,4.05
2023-04-09T22:29:26.621Z,3.35
2023-04-09T22:31:53.742Z,3.67
2023-04-09T22:34:21.739Z,3.33
2023-04-09T22:36:48.881Z,4.38
2023-04-09T22:39:15.756Z,3.33
2023-04-09T22:41:42.449Z,3.65
2023-04-09T22:44:09.684Z,3.88
2023-04-09T22:46:36.740Z,4.03
2023-04-09T22:49:05.314Z,3.10
2023-04-09T22:51:34.663Z,3.55
2023-04-09T22:54:01.984Z,3.70
2023-04-09T22:56:30.137Z,4.20
2023-04-09T22:58:56.875Z,3.83
2023-04-09T23:01:23.597Z,4.38
2023-04-09T23:03:50.949Z,3.90
2023-04-09T23:06:17.696Z,4.28
2023-04-09T23:08:44.943Z,4.20
2023-04-09T23:11:11.738Z,4.10
2023-04-09T23:13:38.820Z,4.35
2023-04-09T23:16:09.794Z,4.53
2023-04-09T23:18:37.007Z,4.20
2023-04-09T23:21:12.799Z,4.05
2023-04-09T23:23:39.550Z,4.72
2023-04-09T23:26:06.734Z,4.10
2023-04-09T23:28:33.476Z,4.40
2023-04-09T23:31:00.509Z,4.88
2023-04-09T23:33:27.223Z,4.45
2023-04-09T23:35:54.136Z,4.93
2023-04-09T23:38:20.953Z,4.57
2023-04-09T23:40:48.853Z,5.00
2023-04-09T23:43:15.574Z,5.05
2023-04-09T23:45:43.595Z,4.82
2023-04-09T23:48:11.922Z,4.38
2023-04-09T23:50:39.673Z,4.53
2023-04-09T23:53:06.640Z,4.15
2023-04-09T23:55:37.881Z,4.95
2023-04-09T23:58:05.301Z,4.97
